sensor_id;sensor_type;location;lat;lon;timestamp;pressure;altitude;pressure_sealevel;temperature;humidity
5062;BME280;2351;50.812;12.872;2023-04-20T00:00:05;98086.19;;;3.70;100.00
5062;BME280;2351;50.812;12.872;2023-04-20T00:02:42;98083.66;;;3.68;100.00
5062;BME280;2351;50.812;12.872;2023-04-20T00:05:14;98080.13;;;3.69;100.00
5062;BME280;2351;50.812;12.872;2023-04-20T00:07:46;98079.25;;;3.69;100.00
5062;BME280;2351;50.812;12.872;2023-04-20T00:10:18;98075.81;;;3.68;100.00
5062;BME280;2351;50.812;12.872;2023-04-20T00:12:49;98074.94;;;3.68;100.00
5062;BME280;2351;50.812;12.872;2023-04-20T00:15:21;98073.25;;;3.67;100.00
5062;BME280;2351;50.812;12.872;2023-04-20T00:17:54;98071.66;;;3.64;100.00
5062;BME280;2351;50.812;12.872;2023-04-20T00:20:26;98068.38;;;3.60;100.00
5062;BME280;2351;50.812;12.872;2023-04-20T00:22:58;98070.31;;;3.57;100.00
5062;BME280;2351;50.812;12.872;2023-04-20T00:25:30;98067.97;;;3.52;100.00
5062;BME280;2351;50.812;12.872;2023-04-20T00:28:01;98064.56;;;3.50;100.00
5062;BME280;2351;50.812;12.872;2023-04-20T00:30:33;98066.44;;;3.48;100.00
5062;BME280;2351;50.812;12.872;2023-04-20T00:33:06;98059.44;;;3.49;100.00
5062;BME280;2351;50.812;12.872;2023-04-20T00:35:38;98067.19;;;3.50;100.00
5062;BME280;2351;50.812;12.872;2023-04-20T00:38:10;98070.66;;;3.51;100.00
5062;BME280;2351;50.812;12.872;2023-04-20T00:40:42;98067.13;;;3.52;100.00
5062;BME280;2351;50.812;12.872;2023-04-20T00:43:14;98067.78;;;3.55;100.00
5062;BME280;2351;50.812;12.872;2023-04-20T00:45:46;98065.94;;;3.57;100.00
5062;BME280;2351;50.812;12.872;2023-04-20T00:48:20;98070.25;;;3.58;100.00
5062;BME280;2351;50.812;12.872;2023-04-20T00:50:52;98072.84;;;3.58;100.00
5062;BME280;2351;50.812;12.872;2023-04-20T00:53:24;98066.75;;;3.58;100.00
5062;BME280;2351;50.812;12.872;2023-04-20T00:55:55;98057.22;;;3.57;100.00
5062;BME280;2351;50.812;12.872;2023-04-20T00:58:27;98063.38;;;3.56;100.00
5062;BME280;2351;50.812;12.872;2023-04-20T01:00:59;98065.19;;;3.55;100.00
5062;BME280;2351;50.812;12.872;2023-04-20T01:03:32;98056.41;;;3.56;100.00
5062;BME280;2351;50.812;12.872;2023-04-20T01:06:04;98049.47;;;3.55;100.00
5062;BME280;2351;50.812;12.872;2023-04-20T01:08:44;98048.59;;;3.55;100.00
5062;BME280;2351;50.812;12.872;2023-04-20T01:11:16;98050.56;;;3.51;100.00
5062;BME280;2351;50.812;12.872;2023-04-20T01:13:48;98053.19;;;3.51;100.00
5062;BME280;2351;50.812;12.872;2023-04-20T01:16:20;98043.63;;;3.50;100.00
5062;BME280;2351;50.812;12.872;2023-04-20T01:18:53;98052.59;;;3.46;100.00
5062;BME280;2351;50.812;12.872;2023-04-20T01:21:25;98044.34;;;3.38;100.00
5062;BME280;2351;50.812;12.872;2023-04-20T01:23:58;98051.75;;;3.29;100.00
5062;BME280;2351;50.812;12.872;2023-04-20T01:26:30;98044.06;;;3.26;100.00
5062;BME280;2351;50.812;12.872;2023-04-20T01:29:02;98059.00;;;3.24;100.00
5062;BME280;2351;50.812;12.872;2023-04-20T01:31:34;98045.16;;;3.22;100.00
5062;BME280;2351;50.812;12.872;2023-04-20T01:34:05;98049.56;;;3.22;100.00
5062;BME280;2351;50.812;12.872;2023-04-20T01:36:37;98045.16;;;3.22;100.00
5062;BME280;2351;50.812;12.872;2023-04-20T01:39:11;98045.75;;;3.27;100.00
5062;BME280;2351;50.812;12.872;2023-04-20T01:41:43;98049.06;;;3.31;100.00
5062;BME280;2351;50.812;12.872;2023-04-20T01:44:15;98041.13;;;3.33;100.00
5062;BME280;2351;50.812;12.872;2023-04-20T01:46:46;98040.97;;;3.36;100.00
5062;BME280;2351;50.812;12.872;2023-04-20T01:49:18;98043.63;;;3.34;100.00
5062;BME280;2351;50.812;12.872;2023-04-20T01:51:50;98037.91;;;3.27;100.00
5062;BME280;2351;50.812;12.872;2023-04-20T01:54:23;98040.94;;;3.20;100.00
5062;BME280;2351;50.812;12.872;2023-04-20T01:56:54;98036.81;;;3.15;100.00
5062;BME280;2351;50.812;12.872;2023-04-20T01:59:27;98043.06;;;3.13;100.00
5062;BME280;2351;50.812;12.872;2023-04-20T02:01:58;98037.97;;;3.10;100.00
5062;BME280;2351;50.812;12.872;2023-04-20T02:04:30;98040.09;;;3.03;100.00
5062;BME280;2351;50.812;12.872;2023-04-20T02:07:02;98039.38;;;2.99;100.00
5062;BME280;2351;50.812;12.872;2023-04-20T02:09:35;98028.94;;;2.99;100.00
5062;BME280;2351;50.812;12.872;2023-04-20T02:12:06;98029.69;;;3.01;100.00
5062;BME280;2351;50.812;12.872;2023-04-20T02:14:38;98037.47;;;3.03;100.00
5062;BME280;2351;50.812;12.872;2023-04-20T02:17:10;98035.69;;;3.04;100.00
5062;BME280;2351;50.812;12.872;2023-04-20T02:19:43;98032.16;;;3.05;100.00
5062;BME280;2351;50.812;12.872;2023-04-20T02:22:14;98030.47;;;3.04;100.00
5062;BME280;2351;50.812;12.872;2023-04-20T02:24:47;98028.78;;;3.03;100.00
5062;BME280;2351;50.812;12.872;2023-04-20T02:27:19;98023.78;;;2.98;100.00
5062;BME280;2351;50.812;12.872;2023-04-20T02:29:51;98030.06;;;2.95;100.00
5062;BME280;2351;50.812;12.872;2023-04-20T02:32:23;98028.69;;;2.88;100.00
5062;BME280;2351;50.812;12.872;2023-04-20T02:34:55;98029.00;;;2.82;100.00
5062;BME280;2351;50.812;12.872;2023-04-20T02:37:26;98036.22;;;2.77;100.00
5062;BME280;2351;50.812;12.872;2023-04-20T02:39:59;98035.03;;;2.66;100.00
5062;BME280;2351;50.812;12.872;2023-04-20T02:42:31;98036.28;;;2.59;100.00
5062;BME280;2351;50.812;12.872;2023-04-20T02:45:04;98033.00;;;2.55;100.00
5062;BME280;2351;50.812;12.872;2023-04-20T02:47:35;98036.44;;;2.56;100.00
5062;BME280;2351;50.812;12.872;2023-04-20T02:50:08;98033.91;;;2.54;100.00
5062;BME280;2351;50.812;12.872;2023-04-20T02:52:40;98040.47;;;2.46;100.00
5062;BME280;2351;50.812;12.872;2023-04-20T02:55:13;98038.78;;;2.45;100.00
5062;BME280;2351;50.812;12.872;2023-04-20T02:57:45;98039.53;;;2.47;100.00
5062;BME280;2351;50.812;12.872;2023-04-20T03:00:17;98035.91;;;2.49;100.00
5062;BME280;2351;50.812;12.872;2023-04-20T03:02:50;98041.13;;;2.49;100.00
5062;BME280;2351;50.812;12.872;2023-04-20T03:05:22;98035.91;;;2.49;100.00
5062;BME280;2351;50.812;12.872;2023-04-20T03:07:55;98048.22;;;2.47;100.00
5062;BME280;2351;50.812;12.872;2023-04-20T03:10:28;98050.75;;;2.49;100.00
5062;BME280;2351;50.812;12.872;2023-04-20T03:13:00;98045.53;;;2.49;100.00
5062;BME280;2351;50.812;12.872;2023-04-20T03:15:32;98046.38;;;2.49;100.00
5062;BME280;2351;50.812;12.872;2023-04-20T03:18:03;98043.75;;;2.49;100.00
5062;BME280;2351;50.812;12.872;2023-04-20T03:20:35;98048.06;;;2.50;100.00
5062;BME280;2351;50.812;12.872;2023-04-20T03:23:07;98046.50;;;2.46;100.00
5062;BME280;2351;50.812;12.872;2023-04-20T03:25:40;98052.00;;;2.41;100.00
5062;BME280;2351;50.812;12.872;2023-04-20T03:28:12;98048.00;;;2.34;100.00
5062;BME280;2351;50.812;12.872;2023-04-20T03:30:44;98036.19;;;2.27;100.00
5062;BME280;2351;50.812;12.872;2023-04-20T03:33:16;98042.47;;;2.23;100.00
5062;BME280;2351;50.812;12.872;2023-04-20T03:35:47;98036.63;;;2.18;100.00
5062;BME280;2351;50.812;12.872;2023-04-20T03:38:19;98035.44;;;2.07;100.00
5062;BME280;2351;50.812;12.872;2023-04-20T03:40:52;98031.31;;;2.02;100.00
5062;BME280;2351;50.812;12.872;2023-04-20T03:43:24;98035.88;;;1.98;100.00
5062;BME280;2351;50.812;12.872;2023-04-20T03:45:56;98030.78;;;1.95;100.00
5062;BME280;2351;50.812;12.872;2023-04-20T03:48:28;98031.84;;;1.91;100.00
5062;BME280;2351;50.812;12.872;2023-04-20T03:50:59;98031.31;;;1.84;100.00
5062;BME280;2351;50.812;12.872;2023-04-20T03:53:31;98029.78;;;1.80;100.00
5062;BME280;2351;50.812;12.872;2023-04-20T03:56:04;98043.06;;;1.75;100.00
5062;BME280;2351;50.812;12.872;2023-04-20T03:58:36;98044.13;;;1.71;100.00
5062;BME280;2351;50.812;12.872;2023-04-20T04:01:09;98046.81;;;1.70;100.00
5062;BME280;2351;50.812;12.872;2023-04-20T04:03:42;98043.59;;;1.64;100.00
5062;BME280;2351;50.812;12.872;2023-04-20T04:06:14;98035.13;;;1.59;100.00
5062;BME280;2351;50.812;12.872;2023-04-20T04:08:45;98039.66;;;1.56;100.00
5062;BME280;2351;50.812;12.872;2023-04-20T04:11:18;98038.19;;;1.50;100.00
5062;BME280;2351;50.812;12.872;2023-04-20T04:13:50;98032.44;;;1.43;100.00
5062;BME280;2351;50.812;12.872;2023-04-20T04:16:22;98036.00;;;1.41;100.00
5062;BME280;2351;50.812;12.872;2023-04-20T04:18:54;98033.63;;;1.36;100.00
5062;BME280;2351;50.812;12.872;2023-04-20T04:21:25;98028.53;;;1.33;100.00
5062;BME280;2351;50.812;12.872;2023-04-20T04:23:58;98033.22;;;1.26;100.00
5062;BME280;2351;50.812;12.872;2023-04-20T04:26:31;98044.78;;;1.20;100.00
5062;BME280;2351;50.812;12.872;2023-04-20T04:29:03;98048.44;;;1.16;100.00
5062;BME280;2351;50.812;12.872;2023-04-20T04:31:36;98047.38;;;1.20;100.00
5062;BME280;2351;50.812;12.872;2023-04-20T04:34:07;98044.78;;;1.20;100.00
5062;BME280;2351;50.812;12.872;2023-04-20T04:36:40;98040.31;;;1.23;100.00
5062;BME280;2351;50.812;12.872;2023-04-20T04:39:12;98044.63;;;1.24;100.00
5062;BME280;2351;50.812;12.872;2023-04-20T04:41:45;98046.25;;;1.26;100.00
5062;BME280;2351;50.812;12.872;2023-04-20T04:44:16;98050.25;;;1.33;100.00
5062;BME280;2351;50.812;12.872;2023-04-20T04:46:48;98043.97;;;1.38;100.00
5062;BME280;2351;50.812;12.872;2023-04-20T04:49:20;98053.28;;;1.43;100.00
5062;BME280;2351;50.812;12.872;2023-04-20T04:51:53;98051.91;;;1.54;100.00
5062;BME280;2351;50.812;12.872;2023-04-20T04:54:25;98043.00;;;1.94;100.00
5062;BME280;2351;50.812;12.872;2023-04-20T04:56:58;98052.75;;;2.44;100.00
5062;BME280;2351;50.812;12.872;2023-04-20T04:59:30;98048.88;;;3.02;100.00
5062;BME280;2351;50.812;12.872;2023-04-20T05:02:02;98041.00;;;3.66;100.00
5062;BME280;2351;50.812;12.872;2023-04-20T05:04:34;98051.19;;;4.17;100.00
5062;BME280;2351;50.812;12.872;2023-04-20T05:07:06;98059.38;;;4.42;100.00
5062;BME280;2351;50.812;12.872;2023-04-20T05:09:40;98053.31;;;4.41;100.00
5062;BME280;2351;50.812;12.872;2023-04-20T05:12:13;98057.22;;;4.34;100.00
5062;BME280;2351;50.812;12.872;2023-04-20T05:14:45;98056.47;;;4.32;100.00
5062;BME280;2351;50.812;12.872;2023-04-20T05:17:16;98061.09;;;4.12;100.00
5062;BME280;2351;50.812;12.872;2023-04-20T05:19:48;98067.22;;;3.97;100.00
5062;BME280;2351;50.812;12.872;2023-04-20T05:22:20;98069.44;;;3.88;100.00
5062;BME280;2351;50.812;12.872;2023-04-20T05:24:51;98070.78;;;3.96;100.00
5062;BME280;2351;50.812;12.872;2023-04-20T05:27:24;98071.88;;;3.91;100.00
5062;BME280;2351;50.812;12.872;2023-04-20T05:29:56;98081.44;;;3.92;100.00
5062;BME280;2351;50.812;12.872;2023-04-20T05:32:28;98073.53;;;4.09;100.00
5062;BME280;2351;50.812;12.872;2023-04-20T05:35:00;98086.34;;;4.44;100.00
5062;BME280;2351;50.812;12.872;2023-04-20T05:37:32;98086.16;;;4.32;100.00
5062;BME280;2351;50.812;12.872;2023-04-20T05:40:05;98081.38;;;4.25;100.00
5062;BME280;2351;50.812;12.872;2023-04-20T05:42:38;98087.09;;;4.31;100.00
5062;BME280;2351;50.812;12.872;2023-04-20T05:45:10;98083.88;;;4.26;100.00
5062;BME280;2351;50.812;12.872;2023-04-20T05:47:51;98097.22;;;4.37;100.00
5062;BME280;2351;50.812;12.872;2023-04-20T05:50:23;98092.78;;;3.77;100.00
5062;BME280;2351;50.812;12.872;2023-04-20T05:52:54;98095.09;;;3.98;100.00
5062;BME280;2351;50.812;12.872;2023-04-20T05:55:26;98094.97;;;4.15;100.00
5062;BME280;2351;50.812;12.872;2023-04-20T05:57:59;98095.34;;;4.40;100.00
5062;BME280;2351;50.812;12.872;2023-04-20T06:00:31;98098.22;;;5.09;100.00
5062;BME280;2351;50.812;12.872;2023-04-20T06:03:02;98085.03;;;5.94;100.00
5062;BME280;2351;50.812;12.872;2023-04-20T06:05:34;98090.38;;;6.07;97.12
5062;BME280;2351;50.812;12.872;2023-04-20T06:08:06;98090.75;;;5.73;95.93
5062;BME280;2351;50.812;12.872;2023-04-20T06:10:39;98108.25;;;4.88;92.68
5062;BME280;2351;50.812;12.872;2023-04-20T06:13:12;98110.59;;;4.92;96.24
5062;BME280;2351;50.812;12.872;2023-04-20T06:15:43;98098.25;;;5.65;99.40
5062;BME280;2351;50.812;12.872;2023-04-20T06:18:15;98099.94;;;6.08;93.94
5062;BME280;2351;50.812;12.872;2023-04-20T06:20:47;98103.75;;;5.75;96.17
5062;BME280;2351;50.812;12.872;2023-04-20T06:23:18;98090.69;;;6.02;91.91
5062;BME280;2351;50.812;12.872;2023-04-20T06:25:50;98107.19;;;5.90;90.14
5062;BME280;2351;50.812;12.872;2023-04-20T06:28:23;98102.88;;;6.44;91.84
5062;BME280;2351;50.812;12.872;2023-04-20T06:30:55;98091.72;;;6.27;84.69
5062;BME280;2351;50.812;12.872;2023-04-20T06:33:26;98088.50;;;5.67;86.45
5062;BME280;2351;50.812;12.872;2023-04-20T06:35:58;98087.97;;;6.17;86.29
5062;BME280;2351;50.812;12.872;2023-04-20T06:38:30;98095.00;;;7.21;85.55
5062;BME280;2351;50.812;12.872;2023-04-20T06:41:02;98098.88;;;7.42;77.19
5062;BME280;2351;50.812;12.872;2023-04-20T06:43:35;98097.44;;;6.99;75.39
5062;BME280;2351;50.812;12.872;2023-04-20T06:46:07;98088.81;;;6.97;78.67
5062;BME280;2351;50.812;12.872;2023-04-20T06:48:38;98091.75;;;6.92;79.27
5062;BME280;2351;50.812;12.872;2023-04-20T06:51:11;98091.00;;;6.51;77.64
5062;BME280;2351;50.812;12.872;2023-04-20T06:53:43;98084.59;;;6.55;81.07
5062;BME280;2351;50.812;12.872;2023-04-20T06:56:14;98084.19;;;6.74;82.75
5062;BME280;2351;50.812;12.872;2023-04-20T06:58:47;98088.81;;;6.71;80.22
5062;BME280;2351;50.812;12.872;2023-04-20T07:01:19;98097.06;;;6.39;76.09
5062;BME280;2351;50.812;12.872;2023-04-20T07:03:51;98095.03;;;6.29;81.05
5062;BME280;2351;50.812;12.872;2023-04-20T07:06:22;98098.38;;;6.06;78.57
5062;BME280;2351;50.812;12.872;2023-04-20T07:08:56;98089.13;;;6.13;80.88
5062;BME280;2351;50.812;12.872;2023-04-20T07:11:28;98094.06;;;6.58;82.67
5062;BME280;2351;50.812;12.872;2023-04-20T07:14:01;98093.97;;;6.85;82.33
5062;BME280;2351;50.812;12.872;2023-04-20T07:16:33;98095.25;;;6.80;77.46
5062;BME280;2351;50.812;12.872;2023-04-20T07:19:04;98105.25;;;6.21;76.02
5062;BME280;2351;50.812;12.872;2023-04-20T07:21:36;98104.47;;;6.59;79.96
5062;BME280;2351;50.812;12.872;2023-04-20T07:24:07;98104.97;;;6.39;77.59
5062;BME280;2351;50.812;12.872;2023-04-20T07:26:39;98105.75;;;6.67;77.55
5062;BME280;2351;50.812;12.872;2023-04-20T07:29:12;98096.81;;;6.82;76.94
5062;BME280;2351;50.812;12.872;2023-04-20T07:31:44;98094.06;;;7.22;77.13
5062;BME280;2351;50.812;12.872;2023-04-20T07:34:15;98093.22;;;7.22;75.07
5062;BME280;2351;50.812;12.872;2023-04-20T07:36:47;98083.66;;;7.58;76.38
5062;BME280;2351;50.812;12.872;2023-04-20T07:39:19;98076.88;;;7.67;74.57
5062;BME280;2351;50.812;12.872;2023-04-20T07:41:50;98075.31;;;7.89;75.22
5062;BME280;2351;50.812;12.872;2023-04-20T07:44:23;98072.66;;;7.77;73.94
5062;BME280;2351;50.812;12.872;2023-04-20T07:46:55;98084.50;;;7.59;73.52
5062;BME280;2351;50.812;12.872;2023-04-20T07:49:28;98092.00;;;7.52;73.80
5062;BME280;2351;50.812;12.872;2023-04-20T07:52:00;98088.00;;;7.46;73.74
5062;BME280;2351;50.812;12.872;2023-04-20T07:54:31;98096.69;;;6.97;70.91
5062;BME280;2351;50.812;12.872;2023-04-20T07:57:03;98099.75;;;5.97;74.02
5062;BME280;2351;50.812;12.872;2023-04-20T07:59:36;98106.69;;;5.98;77.64
5062;BME280;2351;50.812;12.872;2023-04-20T08:02:08;98095.94;;;6.02;79.08
5062;BME280;2351;50.812;12.872;2023-04-20T08:04:40;98096.47;;;6.08;79.91
5062;BME280;2351;50.812;12.872;2023-04-20T08:07:13;98098.38;;;6.18;82.33
5062;BME280;2351;50.812;12.872;2023-04-20T08:09:45;98091.78;;;6.26;81.40
5062;BME280;2351;50.812;12.872;2023-04-20T08:12:16;98095.13;;;6.15;82.75
5062;BME280;2351;50.812;12.872;2023-04-20T08:14:49;98083.97;;;6.77;86.44
5062;BME280;2351;50.812;12.872;2023-04-20T08:17:21;98085.31;;;7.72;86.39
5062;BME280;2351;50.812;12.872;2023-04-20T08:19:53;98082.53;;;8.47;79.25
5062;BME280;2351;50.812;12.872;2023-04-20T08:22:24;98086.25;;;9.37;77.63
5062;BME280;2351;50.812;12.872;2023-04-20T08:24:59;98076.94;;;9.76;78.80
5062;BME280;2351;50.812;12.872;2023-04-20T08:27:31;98069.38;;;10.37;77.78
5062;BME280;2351;50.812;12.872;2023-04-20T08:30:05;98074.97;;;10.97;76.35
5062;BME280;2351;50.812;12.872;2023-04-20T08:32:38;98079.22;;;10.67;60.92
5062;BME280;2351;50.812;12.872;2023-04-20T08:35:10;98075.38;;;10.72;64.42
5062;BME280;2351;50.812;12.872;2023-04-20T08:37:42;98083.19;;;10.19;64.22
5062;BME280;2351;50.812;12.872;2023-04-20T08:40:15;98081.91;;;9.01;67.85
5062;BME280;2351;50.812;12.872;2023-04-20T08:42:49;98079.28;;;9.01;67.64
5062;BME280;2351;50.812;12.872;2023-04-20T08:45:22;98075.69;;;9.02;69.42
5062;BME280;2351;50.812;12.872;2023-04-20T08:47:55;98083.47;;;8.93;69.25
5062;BME280;2351;50.812;12.872;2023-04-20T08:50:28;98082.47;;;8.71;70.73
5062;BME280;2351;50.812;12.872;2023-04-20T08:53:00;98081.53;;;8.72;72.19
5062;BME280;2351;50.812;12.872;2023-04-20T08:55:32;98084.13;;;8.01;72.27
5062;BME280;2351;50.812;12.872;2023-04-20T08:58:04;98087.78;;;7.87;73.90
5062;BME280;2351;50.812;12.872;2023-04-20T09:00:46;98092.09;;;7.88;74.72
5062;BME280;2351;50.812;12.872;2023-04-20T09:03:31;98089.91;;;7.81;74.81
5062;BME280;2351;50.812;12.872;2023-04-20T09:06:03;98111.66;;;7.09;76.93
5062;BME280;2351;50.812;12.872;2023-04-20T09:08:36;98097.97;;;6.78;78.70
5062;BME280;2351;50.812;12.872;2023-04-20T09:11:19;98099.09;;;7.26;79.07
5062;BME280;2351;50.812;12.872;2023-04-20T09:13:59;98103.38;;;7.52;75.45
5062;BME280;2351;50.812;12.872;2023-04-20T09:16:32;98106.91;;;6.62;71.16
5062;BME280;2351;50.812;12.872;2023-04-20T09:19:04;98110.19;;;6.79;73.85
5062;BME280;2351;50.812;12.872;2023-04-20T09:21:36;98111.25;;;6.89;73.79
5062;BME280;2351;50.812;12.872;2023-04-20T09:24:08;98110.72;;;6.97;73.78
5062;BME280;2351;50.812;12.872;2023-04-20T09:26:40;98115.78;;;7.13;72.27
5062;BME280;2351;50.812;12.872;2023-04-20T09:29:16;98113.13;;;6.87;74.62
5062;BME280;2351;50.812;12.872;2023-04-20T09:31:49;98109.88;;;6.84;72.86
5062;BME280;2351;50.812;12.872;2023-04-20T09:34:22;98107.75;;;6.76;72.26
5062;BME280;2351;50.812;12.872;2023-04-20T09:36:55;98102.28;;;6.79;73.88
5062;BME280;2351;50.812;12.872;2023-04-20T09:39:26;98092.41;;;6.70;73.72
5062;BME280;2351;50.812;12.872;2023-04-20T09:42:03;98103.75;;;6.83;73.74
5062;BME280;2351;50.812;12.872;2023-04-20T09:44:37;98103.44;;;6.62;72.06
5062;BME280;2351;50.812;12.872;2023-04-20T09:47:17;98098.88;;;6.51;72.54
5062;BME280;2351;50.812;12.872;2023-04-20T09:49:49;98110.97;;;6.41;72.85
5062;BME280;2351;50.812;12.872;2023-04-20T09:52:21;98102.25;;;6.53;73.29
5062;BME280;2351;50.812;12.872;2023-04-20T09:54:55;98098.09;;;6.23;72.81
5062;BME280;2351;50.812;12.872;2023-04-20T09:57:27;98097.81;;;6.41;74.76
5062;BME280;2351;50.812;12.872;2023-04-20T10:00:00;98087.31;;;6.41;73.69
5062;BME280;2351;50.812;12.872;2023-04-20T10:02:37;98072.38;;;6.54;74.58
5062;BME280;2351;50.812;12.872;2023-04-20T10:05:09;98081.97;;;6.81;74.16
5062;BME280;2351;50.812;12.872;2023-04-20T10:07:40;98079.25;;;6.83;71.31
5062;BME280;2351;50.812;12.872;2023-04-20T10:10:14;98079.97;;;6.98;73.25
5062;BME280;2351;50.812;12.872;2023-04-20T10:12:48;98079.97;;;7.11;73.33
5062;BME280;2351;50.812;12.872;2023-04-20T10:15:20;98085.66;;;7.04;71.09
5062;BME280;2351;50.812;12.872;2023-04-20T10:17:53;98078.19;;;6.72;72.72
5062;BME280;2351;50.812;12.872;2023-04-20T10:20:26;98077.84;;;6.64;72.57
5062;BME280;2351;50.812;12.872;2023-04-20T10:23:06;98073.97;;;6.44;72.88
5062;BME280;2351;50.812;12.872;2023-04-20T10:25:39;98078.06;;;6.35;74.27
5062;BME280;2351;50.812;12.872;2023-04-20T10:28:11;98075.50;;;6.33;74.75
5062;BME280;2351;50.812;12.872;2023-04-20T10:30:49;98067.84;;;6.43;75.32
5062;BME280;2351;50.812;12.872;2023-04-20T10:33:23;98070.69;;;6.53;75.26
5062;BME280;2351;50.812;12.872;2023-04-20T10:35:54;98063.03;;;6.50;75.21
5062;BME280;2351;50.812;12.872;2023-04-20T10:38:29;98065.22;;;6.43;75.53
5062;BME280;2351;50.812;12.872;2023-04-20T10:41:07;98061.84;;;6.28;76.52
5062;BME280;2351;50.812;12.872;2023-04-20T10:43:39;98056.69;;;6.40;76.47
5062;BME280;2351;50.812;12.872;2023-04-20T10:46:13;98055.16;;;6.50;77.04
5062;BME280;2351;50.812;12.872;2023-04-20T10:48:51;98054.94;;;6.66;76.95
5062;BME280;2351;50.812;12.872;2023-04-20T10:51:23;98055.56;;;6.57;76.20
5062;BME280;2351;50.812;12.872;2023-04-20T10:53:59;98051.78;;;6.61;76.24
5062;BME280;2351;50.812;12.872;2023-04-20T10:56:36;98061.84;;;6.54;77.17
5062;BME280;2351;50.812;12.872;2023-04-20T10:59:09;98052.63;;;6.61;77.33
5062;BME280;2351;50.812;12.872;2023-04-20T11:01:41;98054.72;;;6.56;78.32
5062;BME280;2351;50.812;12.872;2023-04-20T11:04:14;98051.13;;;6.57;77.97
5062;BME280;2351;50.812;12.872;2023-04-20T11:06:46;98050.72;;;6.63;78.74
5062;BME280;2351;50.812;12.872;2023-04-20T11:09:19;98045.06;;;6.83;78.76
5062;BME280;2351;50.812;12.872;2023-04-20T11:11:58;98050.06;;;6.99;78.76
5062;BME280;2351;50.812;12.872;2023-04-20T11:14:32;98041.22;;;7.00;77.99
5062;BME280;2351;50.812;12.872;2023-04-20T11:17:04;98036.41;;;6.93;77.81
5062;BME280;2351;50.812;12.872;2023-04-20T11:19:37;98045.56;;;6.75;79.02
5062;BME280;2351;50.812;12.872;2023-04-20T11:22:19;98047.03;;;6.79;79.33
5062;BME280;2351;50.812;12.872;2023-04-20T11:25:02;98039.78;;;6.70;79.50
5062;BME280;2351;50.812;12.872;2023-04-20T11:27:35;98044.84;;;6.73;79.63
5062;BME280;2351;50.812;12.872;2023-04-20T11:30:07;98038.94;;;6.69;80.09
5062;BME280;2351;50.812;12.872;2023-04-20T11:32:39;98049.16;;;6.61;80.69
5062;BME280;2351;50.812;12.872;2023-04-20T11:35:12;98049.88;;;6.63;81.23
5062;BME280;2351;50.812;12.872;2023-04-20T11:37:45;98038.53;;;6.62;80.57
5062;BME280;2351;50.812;12.872;2023-04-20T11:40:17;98044.84;;;6.47;81.45
5062;BME280;2351;50.812;12.872;2023-04-20T11:42:48;98037.44;;;6.52;83.42
5062;BME280;2351;50.812;12.872;2023-04-20T11:45:20;98041.47;;;6.45;83.12
5062;BME280;2351;50.812;12.872;2023-04-20T11:47:53;98037.66;;;6.23;86.13
5062;BME280;2351;50.812;12.872;2023-04-20T11:50:26;98036.41;;;6.42;84.45
5062;BME280;2351;50.812;12.872;2023-04-20T11:52:58;98032.63;;;6.46;85.69
5062;BME280;2351;50.812;12.872;2023-04-20T11:55:29;98037.56;;;6.63;86.35
5062;BME280;2351;50.812;12.872;2023-04-20T11:58:01;98031.38;;;6.77;84.98
5062;BME280;2351;50.812;12.872;2023-04-20T12:00:33;98030.09;;;6.83;85.83
5062;BME280;2351;50.812;12.872;2023-04-20T12:03:05;98042.69;;;7.04;86.68
5062;BME280;2351;50.812;12.872;2023-04-20T12:05:38;98032.19;;;6.78;85.15
5062;BME280;2351;50.812;12.872;2023-04-20T12:08:09;98036.72;;;6.89;86.33
5062;BME280;2351;50.812;12.872;2023-04-20T12:10:41;98029.88;;;6.99;85.99
5062;BME280;2351;50.812;12.872;2023-04-20T12:13:13;98024.00;;;7.33;87.47
5062;BME280;2351;50.812;12.872;2023-04-20T12:15:45;98027.94;;;7.51;86.36
5062;BME280;2351;50.812;12.872;2023-04-20T12:18:17;98022.28;;;7.69;85.82
5062;BME280;2351;50.812;12.872;2023-04-20T12:20:51;98014.94;;;7.86;85.64
5062;BME280;2351;50.812;12.872;2023-04-20T12:23:22;98017.41;;;8.00;84.56
5062;BME280;2351;50.812;12.872;2023-04-20T12:25:54;98014.47;;;8.16;82.50
5062;BME280;2351;50.812;12.872;2023-04-20T12:28:26;98014.47;;;8.16;82.62
5062;BME280;2351;50.812;12.872;2023-04-20T12:30:58;98007.09;;;7.97;82.12
5062;BME280;2351;50.812;12.872;2023-04-20T12:33:30;98019.88;;;7.66;82.99
5062;BME280;2351;50.812;12.872;2023-04-20T12:36:03;98012.88;;;7.53;85.40
5062;BME280;2351;50.812;12.872;2023-04-20T12:38:35;98001.53;;;7.40;85.83
5062;BME280;2351;50.812;12.872;2023-04-20T12:41:07;98007.97;;;6.99;87.89
5062;BME280;2351;50.812;12.872;2023-04-20T12:43:38;98005.13;;;6.89;88.62
5062;BME280;2351;50.812;12.872;2023-04-20T12:46:10;97996.75;;;6.84;90.93
5062;BME280;2351;50.812;12.872;2023-04-20T12:48:42;97989.69;;;6.71;91.09
5062;BME280;2351;50.812;12.872;2023-04-20T12:51:16;97993.13;;;6.85;92.29
5062;BME280;2351;50.812;12.872;2023-04-20T12:53:48;98001.91;;;6.85;92.15
5062;BME280;2351;50.812;12.872;2023-04-20T12:56:19;98004.84;;;6.81;91.20
5062;BME280;2351;50.812;12.872;2023-04-20T12:58:51;98000.00;;;6.74;93.34
5062;BME280;2351;50.812;12.872;2023-04-20T13:01:23;97995.16;;;6.81;93.29
5062;BME280;2351;50.812;12.872;2023-04-20T13:03:54;98004.59;;;6.97;93.36
5062;BME280;2351;50.812;12.872;2023-04-20T13:06:27;98002.63;;;6.87;91.80
5062;BME280;2351;50.812;12.872;2023-04-20T13:09:02;97999.78;;;6.90;93.28
5062;BME280;2351;50.812;12.872;2023-04-20T13:11:34;97995.88;;;6.96;91.49
5062;BME280;2351;50.812;12.872;2023-04-20T13:14:05;98012.00;;;6.91;92.38
5062;BME280;2351;50.812;12.872;2023-04-20T13:16:37;97994.91;;;7.10;93.12
5062;BME280;2351;50.812;12.872;2023-04-20T13:19:09;97992.94;;;7.38;93.19
5062;BME280;2351;50.812;12.872;2023-04-20T13:21:42;97987.84;;;7.48;92.54
5062;BME280;2351;50.812;12.872;2023-04-20T13:24:13;97986.88;;;7.49;91.83
5062;BME280;2351;50.812;12.872;2023-04-20T13:26:45;97990.16;;;7.64;91.94
5062;BME280;2351;50.812;12.872;2023-04-20T13:29:17;98011.31;;;7.75;88.83
5062;BME280;2351;50.812;12.872;2023-04-20T13:31:48;97996.97;;;7.79;91.72
5062;BME280;2351;50.812;12.872;2023-04-20T13:34:20;97996.75;;;7.82;90.59
5062;BME280;2351;50.812;12.872;2023-04-20T13:36:53;98001.66;;;7.87;89.16
5062;BME280;2351;50.812;12.872;2023-04-20T13:39:25;97990.63;;;7.58;89.42
5062;BME280;2351;50.812;12.872;2023-04-20T13:41:57;98003.00;;;7.44;89.37
5062;BME280;2351;50.812;12.872;2023-04-20T13:44:29;97989.38;;;7.26;90.74